sensor_id;sensor_type;location;lat;lon;timestamp;P1;durP1;ratioP1;P2;durP2;ratioP2
55537;SDS011;41383;51.418;7.286;2023-02-05T00:02:10;28.88;;;10.63;;
55537;SDS011;41383;51.418;7.286;2023-02-05T00:04:36;30.23;;;10.57;;
55537;SDS011;41383;51.418;7.286;2023-02-05T00:07:02;31.73;;;12.27;;
55537;SDS011;41383;51.418;7.286;2023-02-05T00:09:28;25.23;;;11.48;;
55537;SDS011;41383;51.418;7.286;2023-02-05T00:11:55;36.03;;;12.32;;
55537;SDS011;41383;51.418;7.286;2023-02-05T00:14:21;25.48;;;10.32;;
55537;SDS011;41383;51.418;7.286;2023-02-05T00:16:46;28.77;;;11.95;;
55537;SDS011;41383;51.418;7.286;2023-02-05T00:19:11;34.05;;;11.95;;
55537;SDS011;41383;51.418;7.286;2023-02-05T00:21:37;32.70;;;10.73;;
55537;SDS011;41383;51.418;7.286;2023-02-05T00:24:02;28.35;;;10.85;;
55537;SDS011;41383;51.418;7.286;2023-02-05T00:26:28;24.63;;;9.40;;
55537;SDS011;41383;51.418;7.286;2023-02-05T00:28:53;27.43;;;9.47;;
55537;SDS011;41383;51.418;7.286;2023-02-05T00:31:19;28.80;;;8.70;;
55537;SDS011;41383;51.418;7.286;2023-02-05T00:33:45;23.80;;;10.32;;
55537;SDS011;41383;51.418;7.286;2023-02-05T00:36:12;23.48;;;9.32;;
55537;SDS011;41383;51.418;7.286;2023-02-05T00:38:38;39.75;;;9.60;;
55537;SDS011;41383;51.418;7.286;2023-02-05T00:41:04;29.80;;;10.32;;
55537;SDS011;41383;51.418;7.286;2023-02-05T00:43:29;29.40;;;10.20;;
55537;SDS011;41383;51.418;7.286;2023-02-05T00:45:55;29.63;;;10.00;;
55537;SDS011;41383;51.418;7.286;2023-02-05T00:48:20;24.67;;;11.18;;
55537;SDS011;41383;51.418;7.286;2023-02-05T00:50:46;24.92;;;9.98;;
55537;SDS011;41383;51.418;7.286;2023-02-05T00:53:13;26.83;;;10.35;;
55537;SDS011;41383;51.418;7.286;2023-02-05T00:55:38;27.35;;;10.93;;
55537;SDS011;41383;51.418;7.286;2023-02-05T00:58:03;28.43;;;13.10;;
55537;SDS011;41383;51.418;7.286;2023-02-05T01:00:29;35.63;;;10.68;;
55537;SDS011;41383;51.418;7.286;2023-02-05T01:02:54;33.25;;;10.65;;
55537;SDS011;41383;51.418;7.286;2023-02-05T01:05:19;33.47;;;11.63;;
55537;SDS011;41383;51.418;7.286;2023-02-05T01:07:45;26.02;;;10.45;;
55537;SDS011;41383;51.418;7.286;2023-02-05T01:10:10;23.67;;;9.73;;
55537;SDS011;41383;51.418;7.286;2023-02-05T01:12:36;26.73;;;10.43;;
55537;SDS011;41383;51.418;7.286;2023-02-05T01:15:01;34.88;;;11.82;;
55537;SDS011;41383;51.418;7.286;2023-02-05T01:17:28;18.55;;;8.95;;
55537;SDS011;41383;51.418;7.286;2023-02-05T01:19:54;29.10;;;13.30;;
55537;SDS011;41383;51.418;7.286;2023-02-05T01:22:19;33.95;;;11.10;;
55537;SDS011;41383;51.418;7.286;2023-02-05T01:24:44;24.33;;;9.65;;
55537;SDS011;41383;51.418;7.286;2023-02-05T01:27:10;22.50;;;9.43;;
55537;SDS011;41383;51.418;7.286;2023-02-05T01:29:35;20.20;;;9.43;;
55537;SDS011;41383;51.418;7.286;2023-02-05T01:32:00;19.60;;;10.18;;
55537;SDS011;41383;51.418;7.286;2023-02-05T01:34:25;23.27;;;11.40;;
55537;SDS011;41383;51.418;7.286;2023-02-05T01:36:51;33.30;;;12.32;;
55537;SDS011;41383;51.418;7.286;2023-02-05T01:39:16;31.60;;;9.50;;
55537;SDS011;41383;51.418;7.286;2023-02-05T01:41:41;19.20;;;8.55;;
55537;SDS011;41383;51.418;7.286;2023-02-05T01:44:10;23.73;;;9.75;;
55537;SDS011;41383;51.418;7.286;2023-02-05T01:46:42;23.85;;;9.00;;
55537;SDS011;41383;51.418;7.286;2023-02-05T01:49:09;26.83;;;10.02;;
55537;SDS011;41383;51.418;7.286;2023-02-05T01:51:39;26.15;;;10.15;;
55537;SDS011;41383;51.418;7.286;2023-02-05T01:54:04;21.33;;;8.85;;
55537;SDS011;41383;51.418;7.286;2023-02-05T01:56:42;22.13;;;9.45;;
55537;SDS011;41383;51.418;7.286;2023-02-05T01:59:35;33.08;;;9.23;;
55537;SDS011;41383;51.418;7.286;2023-02-05T02:02:03;28.17;;;9.85;;
55537;SDS011;41383;51.418;7.286;2023-02-05T02:04:39;22.35;;;8.57;;
55537;SDS011;41383;51.418;7.286;2023-02-05T02:07:10;23.48;;;8.13;;
55537;SDS011;41383;51.418;7.286;2023-02-05T02:09:38;27.42;;;8.82;;
55537;SDS011;41383;51.418;7.286;2023-02-05T02:12:07;28.75;;;9.05;;
55537;SDS011;41383;51.418;7.286;2023-02-05T02:14:33;20.67;;;7.68;;
55537;SDS011;41383;51.418;7.286;2023-02-05T02:17:01;40.15;;;11.45;;
55537;SDS011;41383;51.418;7.286;2023-02-05T02:19:31;25.08;;;8.00;;
55537;SDS011;41383;51.418;7.286;2023-02-05T02:22:07;32.83;;;9.85;;
55537;SDS011;41383;51.418;7.286;2023-02-05T02:27:38;21.10;;;8.65;;
55537;SDS011;41383;51.418;7.286;2023-02-05T02:33:07;37.60;;;10.05;;
55537;SDS011;41383;51.418;7.286;2023-02-05T02:36:04;25.00;;;8.45;;
55537;SDS011;41383;51.418;7.286;2023-02-05T02:38:53;29.15;;;11.30;;
55537;SDS011;41383;51.418;7.286;2023-02-05T02:44:31;19.55;;;8.38;;
55537;SDS011;41383;51.418;7.286;2023-02-05T02:47:11;25.92;;;10.57;;
55537;SDS011;41383;51.418;7.286;2023-02-05T02:49:41;27.63;;;9.95;;
55537;SDS011;41383;51.418;7.286;2023-02-05T02:52:28;20.85;;;9.48;;
55537;SDS011;41383;51.418;7.286;2023-02-05T02:55:00;28.23;;;9.75;;
55537;SDS011;41383;51.418;7.286;2023-02-05T02:57:30;30.10;;;8.20;;
55537;SDS011;41383;51.418;7.286;2023-02-05T02:59:59;25.25;;;9.82;;
55537;SDS011;41383;51.418;7.286;2023-02-05T03:02:27;39.85;;;9.88;;
55537;SDS011;41383;51.418;7.286;2023-02-05T03:04:57;23.38;;;9.90;;
55537;SDS011;41383;51.418;7.286;2023-02-05T03:07:29;25.92;;;8.70;;
55537;SDS011;41383;51.418;7.286;2023-02-05T03:12:42;27.35;;;10.00;;
55537;SDS011;41383;51.418;7.286;2023-02-05T03:15:07;23.33;;;11.00;;
55537;SDS011;41383;51.418;7.286;2023-02-05T03:17:34;21.05;;;8.45;;
55537;SDS011;41383;51.418;7.286;2023-02-05T03:20:17;24.05;;;9.35;;
55537;SDS011;41383;51.418;7.286;2023-02-05T03:22:47;25.77;;;10.68;;
55537;SDS011;41383;51.418;7.286;2023-02-05T03:25:12;34.65;;;11.95;;
55537;SDS011;41383;51.418;7.286;2023-02-05T03:27:38;26.05;;;10.23;;
55537;SDS011;41383;51.418;7.286;2023-02-05T03:30:04;19.98;;;10.30;;
55537;SDS011;41383;51.418;7.286;2023-02-05T03:35:26;25.77;;;10.13;;
55537;SDS011;41383;51.418;7.286;2023-02-05T03:38:04;25.42;;;11.07;;
55537;SDS011;41383;51.418;7.286;2023-02-05T03:45:50;24.73;;;12.80;;
55537;SDS011;41383;51.418;7.286;2023-02-05T03:51:15;30.88;;;10.07;;
55537;SDS011;41383;51.418;7.286;2023-02-05T03:56:27;36.00;;;11.40;;
55537;SDS011;41383;51.418;7.286;2023-02-05T03:59:01;32.33;;;12.85;;
55537;SDS011;41383;51.418;7.286;2023-02-05T04:01:27;24.70;;;12.07;;
55537;SDS011;41383;51.418;7.286;2023-02-05T04:03:53;23.30;;;11.77;;
55537;SDS011;41383;51.418;7.286;2023-02-05T04:06:19;38.92;;;14.68;;
55537;SDS011;41383;51.418;7.286;2023-02-05T04:08:44;32.13;;;13.82;;
55537;SDS011;41383;51.418;7.286;2023-02-05T04:11:09;29.83;;;14.98;;
55537;SDS011;41383;51.418;7.286;2023-02-05T04:13:35;25.38;;;12.90;;
55537;SDS011;41383;51.418;7.286;2023-02-05T04:16:00;39.05;;;13.27;;
55537;SDS011;41383;51.418;7.286;2023-02-05T04:18:26;35.83;;;13.13;;
55537;SDS011;41383;51.418;7.286;2023-02-05T04:20:51;29.35;;;12.68;;
55537;SDS011;41383;51.418;7.286;2023-02-05T04:23:16;27.75;;;13.05;;
55537;SDS011;41383;51.418;7.286;2023-02-05T04:25:42;37.90;;;16.65;;
55537;SDS011;41383;51.418;7.286;2023-02-05T04:28:08;37.47;;;15.82;;
55537;SDS011;41383;51.418;7.286;2023-02-05T04:30:33;32.70;;;13.20;;
55537;SDS011;41383;51.418;7.286;2023-02-05T04:32:59;28.52;;;12.07;;
55537;SDS011;41383;51.418;7.286;2023-02-05T04:35:24;44.88;;;15.50;;
55537;SDS011;41383;51.418;7.286;2023-02-05T04:37:49;52.70;;;16.98;;
55537;SDS011;41383;51.418;7.286;2023-02-05T04:40:15;31.83;;;12.88;;
55537;SDS011;41383;51.418;7.286;2023-02-05T04:42:40;41.53;;;15.23;;
55537;SDS011;41383;51.418;7.286;2023-02-05T04:45:06;44.83;;;17.58;;
55537;SDS011;41383;51.418;7.286;2023-02-05T04:47:32;34.58;;;15.98;;
55537;SDS011;41383;51.418;7.286;2023-02-05T04:49:58;29.50;;;12.85;;
55537;SDS011;41383;51.418;7.286;2023-02-05T04:52:23;27.52;;;13.55;;
55537;SDS011;41383;51.418;7.286;2023-02-05T04:54:48;34.35;;;13.65;;
55537;SDS011;41383;51.418;7.286;2023-02-05T04:57:14;38.28;;;13.70;;
55537;SDS011;41383;51.418;7.286;2023-02-05T04:59:39;39.73;;;13.87;;
55537;SDS011;41383;51.418;7.286;2023-02-05T05:02:04;38.08;;;15.15;;
55537;SDS011;41383;51.418;7.286;2023-02-05T05:04:30;44.35;;;15.25;;
55537;SDS011;41383;51.418;7.286;2023-02-05T05:06:55;30.10;;;15.50;;
55537;SDS011;41383;51.418;7.286;2023-02-05T05:09:20;35.40;;;13.27;;
55537;SDS011;41383;51.418;7.286;2023-02-05T05:11:48;28.40;;;13.23;;
55537;SDS011;41383;51.418;7.286;2023-02-05T05:14:15;33.38;;;13.82;;
55537;SDS011;41383;51.418;7.286;2023-02-05T05:16:40;35.75;;;15.05;;
55537;SDS011;41383;51.418;7.286;2023-02-05T05:19:05;27.60;;;12.07;;
55537;SDS011;41383;51.418;7.286;2023-02-05T05:21:30;28.53;;;14.13;;
55537;SDS011;41383;51.418;7.286;2023-02-05T05:23:56;35.90;;;13.32;;
55537;SDS011;41383;51.418;7.286;2023-02-05T05:26:21;28.80;;;13.13;;
55537;SDS011;41383;51.418;7.286;2023-02-05T05:28:46;29.77;;;13.90;;
55537;SDS011;41383;51.418;7.286;2023-02-05T05:31:12;32.75;;;13.50;;
55537;SDS011;41383;51.418;7.286;2023-02-05T05:33:43;23.48;;;11.80;;
55537;SDS011;41383;51.418;7.286;2023-02-05T05:36:08;22.70;;;11.40;;
55537;SDS011;41383;51.418;7.286;2023-02-05T05:38:34;32.08;;;12.65;;
55537;SDS011;41383;51.418;7.286;2023-02-05T05:41:00;27.98;;;11.98;;
55537;SDS011;41383;51.418;7.286;2023-02-05T05:43:44;23.20;;;10.50;;
55537;SDS011;41383;51.418;7.286;2023-02-05T05:46:17;23.77;;;12.52;;
55537;SDS011;41383;51.418;7.286;2023-02-05T05:48:51;19.27;;;9.25;;
55537;SDS011;41383;51.418;7.286;2023-02-05T05:51:18;27.30;;;12.48;;
55537;SDS011;41383;51.418;7.286;2023-02-05T05:53:44;23.05;;;11.65;;
55537;SDS011;41383;51.418;7.286;2023-02-05T05:56:09;24.40;;;10.90;;
55537;SDS011;41383;51.418;7.286;2023-02-05T05:58:35;25.55;;;11.95;;
55537;SDS011;41383;51.418;7.286;2023-02-05T06:01:00;30.70;;;11.75;;
55537;SDS011;41383;51.418;7.286;2023-02-05T06:03:25;19.33;;;10.88;;
55537;SDS011;41383;51.418;7.286;2023-02-05T06:05:51;26.40;;;11.18;;
55537;SDS011;41383;51.418;7.286;2023-02-05T06:08:16;20.90;;;11.68;;
55537;SDS011;41383;51.418;7.286;2023-02-05T06:10:41;19.27;;;10.15;;
55537;SDS011;41383;51.418;7.286;2023-02-05T06:13:07;28.33;;;11.43;;
55537;SDS011;41383;51.418;7.286;2023-02-05T06:15:32;26.57;;;14.10;;
55537;SDS011;41383;51.418;7.286;2023-02-05T06:17:57;34.70;;;14.70;;
55537;SDS011;41383;51.418;7.286;2023-02-05T06:20:23;34.67;;;14.70;;
55537;SDS011;41383;51.418;7.286;2023-02-05T06:22:48;33.28;;;16.73;;
55537;SDS011;41383;51.418;7.286;2023-02-05T06:25:13;40.20;;;16.80;;
55537;SDS011;41383;51.418;7.286;2023-02-05T06:27:39;37.42;;;15.45;;
55537;SDS011;41383;51.418;7.286;2023-02-05T06:30:05;25.35;;;13.93;;
55537;SDS011;41383;51.418;7.286;2023-02-05T06:32:30;32.78;;;15.48;;
55537;SDS011;41383;51.418;7.286;2023-02-05T06:34:55;30.63;;;15.80;;
55537;SDS011;41383;51.418;7.286;2023-02-05T06:37:21;32.27;;;14.60;;
55537;SDS011;41383;51.418;7.286;2023-02-05T06:39:49;31.45;;;17.90;;
55537;SDS011;41383;51.418;7.286;2023-02-05T06:42:14;37.63;;;19.33;;
55537;SDS011;41383;51.418;7.286;2023-02-05T06:44:40;31.73;;;14.90;;
55537;SDS011;41383;51.418;7.286;2023-02-05T06:47:05;33.80;;;16.07;;
55537;SDS011;41383;51.418;7.286;2023-02-05T06:49:30;42.33;;;20.07;;
55537;SDS011;41383;51.418;7.286;2023-02-05T06:51:55;35.17;;;17.60;;
55537;SDS011;41383;51.418;7.286;2023-02-05T06:54:21;35.03;;;20.02;;
55537;SDS011;41383;51.418;7.286;2023-02-05T06:56:46;45.70;;;19.27;;
55537;SDS011;41383;51.418;7.286;2023-02-05T06:59:11;33.67;;;19.50;;
55537;SDS011;41383;51.418;7.286;2023-02-05T07:01:37;42.42;;;20.92;;
55537;SDS011;41383;51.418;7.286;2023-02-05T07:04:02;42.20;;;22.90;;
55537;SDS011;41383;51.418;7.286;2023-02-05T07:06:28;40.10;;;19.38;;
55537;SDS011;41383;51.418;7.286;2023-02-05T07:08:54;47.15;;;21.90;;
55537;SDS011;41383;51.418;7.286;2023-02-05T07:11:20;44.20;;;21.55;;
55537;SDS011;41383;51.418;7.286;2023-02-05T07:13:47;48.78;;;24.70;;
55537;SDS011;41383;51.418;7.286;2023-02-05T07:16:12;39.08;;;18.55;;
55537;SDS011;41383;51.418;7.286;2023-02-05T07:18:37;45.20;;;19.48;;
55537;SDS011;41383;51.418;7.286;2023-02-05T07:21:03;48.72;;;24.00;;
55537;SDS011;41383;51.418;7.286;2023-02-05T07:23:30;50.03;;;22.50;;
55537;SDS011;41383;51.418;7.286;2023-02-05T07:25:55;38.97;;;19.90;;
55537;SDS011;41383;51.418;7.286;2023-02-05T07:28:20;43.10;;;19.48;;
55537;SDS011;41383;51.418;7.286;2023-02-05T07:30:46;45.43;;;22.37;;
55537;SDS011;41383;51.418;7.286;2023-02-05T07:33:12;40.65;;;20.38;;
55537;SDS011;41383;51.418;7.286;2023-02-05T07:35:37;40.72;;;21.00;;
55537;SDS011;41383;51.418;7.286;2023-02-05T07:38:03;45.50;;;21.77;;
55537;SDS011;41383;51.418;7.286;2023-02-05T07:40:29;45.05;;;22.33;;
55537;SDS011;41383;51.418;7.286;2023-02-05T07:42:54;30.92;;;15.45;;
55537;SDS011;41383;51.418;7.286;2023-02-05T07:45:19;39.97;;;17.07;;
55537;SDS011;41383;51.418;7.286;2023-02-05T07:47:45;32.33;;;16.50;;
55537;SDS011;41383;51.418;7.286;2023-02-05T07:50:13;31.23;;;16.58;;
55537;SDS011;41383;51.418;7.286;2023-02-05T07:52:39;26.95;;;15.18;;
55537;SDS011;41383;51.418;7.286;2023-02-05T07:55:04;28.07;;;15.90;;
55537;SDS011;41383;51.418;7.286;2023-02-05T07:57:30;32.25;;;16.35;;
55537;SDS011;41383;51.418;7.286;2023-02-05T07:59:55;27.23;;;13.40;;
55537;SDS011;41383;51.418;7.286;2023-02-05T08:02:20;25.80;;;15.93;;
55537;SDS011;41383;51.418;7.286;2023-02-05T08:04:45;34.63;;;15.95;;
55537;SDS011;41383;51.418;7.286;2023-02-05T08:07:11;31.10;;;14.50;;
55537;SDS011;41383;51.418;7.286;2023-02-05T08:09:37;24.58;;;13.90;;
55537;SDS011;41383;51.418;7.286;2023-02-05T08:12:02;28.80;;;14.45;;
55537;SDS011;41383;51.418;7.286;2023-02-05T08:14:28;24.90;;;13.65;;
55537;SDS011;41383;51.418;7.286;2023-02-05T08:16:55;34.22;;;18.45;;
55537;SDS011;41383;51.418;7.286;2023-02-05T08:19:20;47.22;;;19.08;;
55537;SDS011;41383;51.418;7.286;2023-02-05T08:21:45;28.48;;;16.15;;
55537;SDS011;41383;51.418;7.286;2023-02-05T08:24:11;28.67;;;14.70;;
55537;SDS011;41383;51.418;7.286;2023-02-05T08:26:36;32.90;;;15.50;;
55537;SDS011;41383;51.418;7.286;2023-02-05T08:29:01;27.37;;;14.43;;
55537;SDS011;41383;51.418;7.286;2023-02-05T08:31:27;31.05;;;16.60;;
55537;SDS011;41383;51.418;7.286;2023-02-05T08:33:52;26.60;;;15.20;;
55537;SDS011;41383;51.418;7.286;2023-02-05T08:36:20;25.40;;;13.90;;
55537;SDS011;41383;51.418;7.286;2023-02-05T08:38:45;24.63;;;13.32;;
55537;SDS011;41383;51.418;7.286;2023-02-05T08:41:11;33.10;;;14.82;;
55537;SDS011;41383;51.418;7.286;2023-02-05T08:43:41;21.67;;;11.35;;
55537;SDS011;41383;51.418;7.286;2023-02-05T08:46:12;23.05;;;13.48;;
55537;SDS011;41383;51.418;7.286;2023-02-05T08:48:38;21.42;;;12.13;;
55537;SDS011;41383;51.418;7.286;2023-02-05T08:51:04;16.38;;;8.52;;
55537;SDS011;41383;51.418;7.286;2023-02-05T08:53:30;19.13;;;7.80;;
55537;SDS011;41383;51.418;7.286;2023-02-05T08:55:57;12.77;;;6.53;;
55537;SDS011;41383;51.418;7.286;2023-02-05T08:58:23;12.35;;;7.32;;
55537;SDS011;41383;51.418;7.286;2023-02-05T09:00:50;9.70;;;4.97;;
55537;SDS011;41383;51.418;7.286;2023-02-05T09:03:15;11.13;;;5.43;;
55537;SDS011;41383;51.418;7.286;2023-02-05T09:05:40;9.27;;;4.03;;
55537;SDS011;41383;51.418;7.286;2023-02-05T09:08:05;6.28;;;2.95;;
55537;SDS011;41383;51.418;7.286;2023-02-05T09:10:31;6.72;;;3.30;;
55537;SDS011;41383;51.418;7.286;2023-02-05T09:12:56;7.72;;;2.70;;
55537;SDS011;41383;51.418;7.286;2023-02-05T09:15:21;7.35;;;2.78;;
55537;SDS011;41383;51.418;7.286;2023-02-05T09:17:46;7.17;;;2.10;;
55537;SDS011;41383;51.418;7.286;2023-02-05T09:20:12;7.87;;;2.93;;
55537;SDS011;41383;51.418;7.286;2023-02-05T09:22:37;5.10;;;2.03;;
55537;SDS011;41383;51.418;7.286;2023-02-05T09:25:03;5.63;;;1.60;;
55537;SDS011;41383;51.418;7.286;2023-02-05T09:27:29;3.95;;;1.83;;
55537;SDS011;41383;51.418;7.286;2023-02-05T09:29:55;6.80;;;2.35;;
55537;SDS011;41383;51.418;7.286;2023-02-05T09:32:20;6.53;;;2.25;;
55537;SDS011;41383;51.418;7.286;2023-02-05T09:34:45;7.07;;;2.00;;
55537;SDS011;41383;51.418;7.286;2023-02-05T09:37:12;5.97;;;1.80;;
55537;SDS011;41383;51.418;7.286;2023-02-05T09:39:38;5.17;;;2.10;;
55537;SDS011;41383;51.418;7.286;2023-02-05T09:42:12;13.40;;;1.35;;
55537;SDS011;41383;51.418;7.286;2023-02-05T09:48:06;4.38;;;1.00;;
55537;SDS011;41383;51.418;7.286;2023-02-05T09:50:48;3.47;;;1.00;;
55537;SDS011;41383;51.418;7.286;2023-02-05T09:53:15;4.25;;;1.75;;
55537;SDS011;41383;51.418;7.286;2023-02-05T09:55:43;4.22;;;1.15;;
55537;SDS011;41383;51.418;7.286;2023-02-05T09:58:12;3.08;;;0.93;;
55537;SDS011;41383;51.418;7.286;2023-02-05T10:00:45;2.95;;;0.90;;
55537;SDS011;41383;51.418;7.286;2023-02-05T10:03:23;1.50;;;0.60;;
55537;SDS011;41383;51.418;7.286;2023-02-05T10:12:05;3.10;;;0.73;;
55537;SDS011;41383;51.418;7.286;2023-02-05T10:26:21;3.22;;;1.08;;
55537;SDS011;41383;51.418;7.286;2023-02-05T10:31:50;5.32;;;1.27;;
55537;SDS011;41383;51.418;7.286;2023-02-05T10:34:58;1.85;;;0.70;;
55537;SDS011;41383;51.418;7.286;2023-02-05T10:37:34;2.33;;;0.57;;
55537;SDS011;41383;51.418;7.286;2023-02-05T10:40:12;105.97;;;66.82;;
55537;SDS011;41383;51.418;7.286;2023-02-05T10:42:48;42.97;;;24.35;;
55537;SDS011;41383;51.418;7.286;2023-02-05T10:45:19;12.02;;;3.60;;
55537;SDS011;41383;51.418;7.286;2023-02-05T10:50:51;4.50;;;1.13;;
55537;SDS011;41383;51.418;7.286;2023-02-05T10:53:23;5.97;;;0.70;;
55537;SDS011;41383;51.418;7.286;2023-02-05T10:55:50;4.25;;;0.90;;
55537;SDS011;41383;51.418;7.286;2023-02-05T10:58:24;2.95;;;1.10;;
55537;SDS011;41383;51.418;7.286;2023-02-05T11:00:59;14.15;;;1.83;;
55537;SDS011;41383;51.418;7.286;2023-02-05T11:03:25;3.00;;;1.08;;
55537;SDS011;41383;51.418;7.286;2023-02-05T11:05:50;5.15;;;1.55;;
55537;SDS011;41383;51.418;7.286;2023-02-05T11:11:02;6.38;;;2.33;;
55537;SDS011;41383;51.418;7.286;2023-02-05T11:13:29;5.82;;;2.63;;
55537;SDS011;41383;51.418;7.286;2023-02-05T11:15:56;5.07;;;2.22;;
55537;SDS011;41383;51.418;7.286;2023-02-05T11:18:28;7.68;;;1.58;;
55537;SDS011;41383;51.418;7.286;2023-02-05T11:20:58;3.67;;;1.58;;
55537;SDS011;41383;51.418;7.286;2023-02-05T11:23:26;6.40;;;1.90;;
55537;SDS011;41383;51.418;7.286;2023-02-05T11:25:58;4.13;;;1.52;;
55537;SDS011;41383;51.418;7.286;2023-02-05T11:28:26;4.97;;;1.85;;
55537;SDS011;41383;51.418;7.286;2023-02-05T11:31:22;4.35;;;1.17;;
55537;SDS011;41383;51.418;7.286;2023-02-05T11:33:49;4.55;;;1.35;;
55537;SDS011;41383;51.418;7.286;2023-02-05T11:36:22;6.10;;;1.80;;
55537;SDS011;41383;51.418;7.286;2023-02-05T11:38:55;4.65;;;1.35;;
55537;SDS011;41383;51.418;7.286;2023-02-05T11:41:31;3.28;;;1.42;;
55537;SDS011;41383;51.418;7.286;2023-02-05T11:44:33;2.72;;;1.10;;
55537;SDS011;41383;51.418;7.286;2023-02-05T11:46:59;3.50;;;1.42;;
55537;SDS011;41383;51.418;7.286;2023-02-05T11:52:09;2.90;;;1.20;;
55537;SDS011;41383;51.418;7.286;2023-02-05T11:54:37;10.73;;;3.10;;
55537;SDS011;41383;51.418;7.286;2023-02-05T12:07:28;4.35;;;2.13;;
55537;SDS011;41383;51.418;7.286;2023-02-05T12:10:00;4.88;;;1.70;;
55537;SDS011;41383;51.418;7.286;2023-02-05T12:12:40;5.20;;;2.33;;
55537;SDS011;41383;51.418;7.286;2023-02-05T12:15:26;4.40;;;2.28;;
55537;SDS011;41383;51.418;7.286;2023-02-05T12:26:49;4.35;;;1.10;;
55537;SDS011;41383;51.418;7.286;2023-02-05T12:32:10;5.47;;;1.80;;
55537;SDS011;41383;51.418;7.286;2023-02-05T12:35:09;2.00;;;1.05;;
55537;SDS011;41383;51.418;7.286;2023-02-05T12:43:28;10.20;;;3.80;;
55537;SDS011;41383;51.418;7.286;2023-02-05T12:46:07;4.72;;;1.85;;
55537;SDS011;41383;51.418;7.286;2023-02-05T13:02:00;6.38;;;2.20;;
55537;SDS011;41383;51.418;7.286;2023-02-05T13:04:35;4.43;;;1.65;;
55537;SDS011;41383;51.418;7.286;2023-02-05T13:07:09;5.70;;;1.75;;
55537;SDS011;41383;51.418;7.286;2023-02-05T13:09:55;13.07;;;2.85;;
55537;SDS011;41383;51.418;7.286;2023-02-05T13:12:25;7.82;;;2.03;;
55537;SDS011;41383;51.418;7.286;2023-02-05T13:14:59;6.28;;;2.92;;
55537;SDS011;41383;51.418;7.286;2023-02-05T13:17:33;5.50;;;1.35;;
55537;SDS011;41383;51.418;7.286;2023-02-05T13:20:05;4.15;;;1.73;;
55537;SDS011;41383;51.418;7.286;2023-02-05T13:22:54;4.47;;;2.10;;
55537;SDS011;41383;51.418;7.286;2023-02-05T13:25:44;6.65;;;2.65;;
55537;SDS011;41383;51.418;7.286;2023-02-05T13:28:33;3.90;;;1.50;;
55537;SDS011;41383;51.418;7.286;2023-02-05T13:31:08;4.75;;;2.20;;
55537;SDS011;41383;51.418;7.286;2023-02-05T13:33:39;4.10;;;1.75;;
55537;SDS011;41383;51.418;7.286;2023-02-05T13:36:17;3.97;;;1.83;;
55537;SDS011;41383;51.418;7.286;2023-02-05T13:47:05;5.30;;;2.55;;
55537;SDS011;41383;51.418;7.286;2023-02-05T13:50:11;8.23;;;3.30;;
55537;SDS011;41383;51.418;7.286;2023-02-05T13:55:26;7.63;;;3.07;;
55537;SDS011;41383;51.418;7.286;2023-02-05T13:58:12;10.25;;;3.20;;
55537;SDS011;41383;51.418;7.286;2023-02-05T14:00:48;5.78;;;2.72;;
55537;SDS011;41383;51.418;7.286;2023-02-05T14:03:26;7.03;;;3.03;;
55537;SDS011;41383;51.418;7.286;2023-02-05T14:05:54;10.57;;;5.68;;
55537;SDS011;41383;51.418;7.286;2023-02-05T14:08:24;10.88;;;4.10;;
55537;SDS011;41383;51.418;7.286;2023-02-05T14:10:57;9.50;;;4.00;;
55537;SDS011;41383;51.418;7.286;2023-02-05T14:13:27;7.88;;;3.33;;
55537;SDS011;41383;51.418;7.286;2023-02-05T14:15:56;7.15;;;3.17;;
55537;SDS011;41383;51.418;7.286;2023-02-05T14:23:57;12.07;;;4.35;;
55537;SDS011;41383;51.418;7.286;2023-02-05T14:35:04;12.02;;;2.83;;
55537;SDS011;41383;51.418;7.286;2023-02-05T14:37:57;10.70;;;3.63;;
55537;SDS011;41383;51.418;7.286;2023-02-05T14:40:31;8.65;;;2.67;;
55537;SDS011;41383;51.418;7.286;2023-02-05T14:43:15;6.03;;;3.10;;
55537;SDS011;41383;51.418;7.286;2023-02-05T14:45:49;6.05;;;2.83;;
55537;SDS011;41383;51.418;7.286;2023-02-05T14:51:02;5.07;;;1.85;;
55537;SDS011;41383;51.418;7.286;2023-02-05T14:53:28;5.47;;;2.22;;
55537;SDS011;41383;51.418;7.286;2023-02-05T14:55:56;11.70;;;4.47;;
55537;SDS011;41383;51.418;7.286;2023-02-05T15:01:39;6.35;;;1.50;;
55537;SDS011;41383;51.418;7.286;2023-02-05T15:03:57;8.38;;;2.20;;
55537;SDS011;41383;51.418;7.286;2023-02-05T15:06:26;7.88;;;3.17;;
55537;SDS011;41383;51.418;7.286;2023-02-05T15:09:01;6.47;;;2.95;;
55537;SDS011;41383;51.418;7.286;2023-02-05T15:11:46;11.63;;;2.35;;
55537;SDS011;41383;51.418;7.286;2023-02-05T15:16:43;10.05;;;1.90;;
55537;SDS011;41383;51.418;7.286;2023-02-05T15:19:09;8.35;;;2.20;;
55537;SDS011;41383;51.418;7.286;2023-02-05T15:21:40;7.05;;;2.10;;
55537;SDS011;41383;51.418;7.286;2023-02-05T15:26:40;9.00;;;2.05;;
55537;SDS011;41383;51.418;7.286;2023-02-05T15:29:12;8.55;;;2.33;;
55537;SDS011;41383;51.418;7.286;2023-02-05T15:31:50;7.10;;;1.83;;
55537;SDS011;41383;51.418;7.286;2023-02-05T15:34:21;4.97;;;1.80;;
55537;SDS011;41383;51.418;7.286;2023-02-05T15:42:18;8.95;;;3.85;;
55537;SDS011;41383;51.418;7.286;2023-02-05T15:44:47;5.97;;;1.73;;
55537;SDS011;41383;51.418;7.286;2023-02-05T15:47:16;9.47;;;2.67;;
55537;SDS011;41383;51.418;7.286;2023-02-05T15:49:45;10.10;;;3.33;;
55537;SDS011;41383;51.418;7.286;2023-02-05T15:52:18;12.10;;;3.47;;
55537;SDS011;41383;51.418;7.286;2023-02-05T15:54:46;15.80;;;3.47;;
55537;SDS011;41383;51.418;7.286;2023-02-05T15:57:21;17.83;;;3.22;;
55537;SDS011;41383;51.418;7.286;2023-02-05T15:59:48;7.03;;;2.28;;
55537;SDS011;41383;51.418;7.286;2023-02-05T16:02:23;11.30;;;2.65;;
55537;SDS011;41383;51.418;7.286;2023-02-05T16:07:25;7.47;;;2.28;;
55537;SDS011;41383;51.418;7.286;2023-02-05T16:09:56;10.57;;;2.20;;
55537;SDS011;41383;51.418;7.286;2023-02-05T16:12:24;7.55;;;2.75;;
55537;SDS011;41383;51.418;7.286;2023-02-05T16:14:59;9.70;;;2.78;;
55537;SDS011;41383;51.418;7.286;2023-02-05T16:17:31;20.02;;;3.53;;
55537;SDS011;41383;51.418;7.286;2023-02-05T16:20:06;12.30;;;2.45;;
55537;SDS011;41383;51.418;7.286;2023-02-05T16:22:43;11.02;;;3.45;;
55537;SDS011;41383;51.418;7.286;2023-02-05T16:27:50;12.32;;;3.03;;
55537;SDS011;41383;51.418;7.286;2023-02-05T16:30:19;10.90;;;3.05;;
55537;SDS011;41383;51.418;7.286;2023-02-05T16:32:52;14.20;;;3.83;;
55537;SDS011;41383;51.418;7.286;2023-02-05T16:35:25;9.82;;;3.33;;
55537;SDS011;41383;51.418;7.286;2023-02-05T16:37:54;15.35;;;4.15;;
55537;SDS011;41383;51.418;7.286;2023-02-05T16:40:28;11.27;;;2.95;;
55537;SDS011;41383;51.418;7.286;2023-02-05T16:42:57;15.02;;;3.05;;
55537;SDS011;41383;51.418;7.286;2023-02-05T16:45:24;9.48;;;2.22;;
55537;SDS011;41383;51.418;7.286;2023-02-05T16:50:45;12.90;;;4.32;;
55537;SDS011;41383;51.418;7.286;2023-02-05T16:53:18;28.33;;;4.40;;
55537;SDS011;41383;51.418;7.286;2023-02-05T16:55:49;13.68;;;3.25;;
55537;SDS011;41383;51.418;7.286;2023-02-05T16:58:20;11.77;;;4.70;;
55537;SDS011;41383;51.418;7.286;2023-02-05T17:00:54;11.32;;;3.60;;
55537;SDS011;41383;51.418;7.286;2023-02-05T17:03:21;12.38;;;3.83;;
55537;SDS011;41383;51.418;7.286;2023-02-05T17:05:55;13.18;;;3.22;;
55537;SDS011;41383;51.418;7.286;2023-02-05T17:08:25;24.58;;;6.20;;
55537;SDS011;41383;51.418;7.286;2023-02-05T17:10:55;9.98;;;3.75;;
55537;SDS011;41383;51.418;7.286;2023-02-05T17:13:38;26.35;;;6.60;;
55537;SDS011;41383;51.418;7.286;2023-02-05T17:16:38;25.35;;;5.47;;